Tepic, Mexico

4:16 PM MDT on October 01, 2016 (GMT -0600)
Tepic Cd Insdustrial | | Change Station

Elev 3018 ft 21.48 °N, 104.85 °W | Updated 7 minutes ago

Mostly Cloudy
Mostly Cloudy
84.8 °F
Feels Like 92 °F
N
2.0
Wind Variable Wind from WSW
Gusts 6.0 mph

Today
High -- | Low -- °F
--% Chance of Precip.
Yesterday
High -- | Low -- °F
Precip. -- in
Pressure 29.99 in
Visibility 12.0 miles
Clouds Scattered Clouds 3000 ft
Mostly Cloudy 25000 ft
Heat Index 92 °F
Dew Point 73 °F
Humidity 68%
Rainfall 0.05 in
Snow Depth Not available.
6:51 AM 6:46 PM
New Moon, 1% visible
METAR MMEP 012150Z 00000KT 12SM SCT030 BKN250 27/22 A2999 RMK 8/508
Pressure 29.99 in
Visibility 12.0 miles
Clouds Scattered Clouds 3000 ft
Mostly Cloudy 25000 ft
Heat Index 92 °F
Dew Point 73 °F
Humidity 68%
Rainfall 0.05 in
Snow Depth Not available.
6:51 AM 6:46 PM
New Moon, 1% visible
METAR MMEP 012150Z 00000KT 12SM SCT030 BKN250 27/22 A2999 RMK 8/508

10-Day Weather Forecast

No radar image for this location.
×

Almanac

Astronomy

Oct. 01, 2016 Rise Set
Actual Time
Civil Twilight
Nautical Twilight
Astronomical Twilight
Moon
Length of Visible Light
Length of Day
Tomorrow will be .
, % of the Moon is Illuminated

Today's Extremes

Country Highs Country Lows

Community

WunderPhotos

Upload Photos

1,943,033 photos uploaded!

WunderBlog® & News

Nearby

Air Quality

  Air Quality AQ Index Pollutant
Not available.

Snow Depth

Station Depth Elevation

Earthquake Activity

City Distance Mag. Time & Date
Minimum magnitude displayed is 2.5.

Coastal Water Temperatures

Place Temperature

Stations

Nearby Weather Stations

Station Location Temp. Windchill Dew Point Humidity Wind Precip. Elev Updated Type